createdAt,value
2023-04-27T00:00:43.771Z,14.53
2023-04-27T00:03:21.840Z,14.63
2023-04-27T00:05:54.561Z,17.37
2023-04-27T00:08:27.444Z,15.60
2023-04-27T00:11:01.529Z,14.90
2023-04-27T00:13:33.810Z,12.73
2023-04-27T00:16:10.613Z,13.50
2023-04-27T00:18:43.547Z,13.93
2023-04-27T00:21:16.312Z,13.60
2023-04-27T00:23:49.859Z,13.00
2023-04-27T00:26:24.037Z,13.37
2023-04-27T00:28:57.053Z,13.20
2023-04-27T00:31:30.290Z,12.93
2023-04-27T00:34:04.494Z,11.97
2023-04-27T00:39:10.753Z,11.57
2023-04-27T00:41:44.084Z,12.40
2023-04-27T00:44:23.616Z,14.53
2023-04-27T00:46:56.915Z,13.90
2023-04-27T00:49:31.107Z,14.13
2023-04-27T00:52:03.887Z,14.10
2023-04-27T00:54:36.769Z,14.03
2023-04-27T00:57:09.201Z,15.93
2023-04-27T00:59:41.741Z,16.60
2023-04-27T01:02:15.106Z,17.23
2023-04-27T01:04:47.912Z,16.13
2023-04-27T01:07:20.301Z,17.07
2023-04-27T01:09:55.654Z,16.83
2023-04-27T01:12:29.617Z,16.63
2023-04-27T01:15:02.924Z,14.93
2023-04-27T01:17:36.088Z,15.45
2023-04-27T01:20:12.651Z,15.67
2023-04-27T01:22:45.261Z,14.13
2023-04-27T01:25:18.086Z,13.97
2023-04-27T01:27:50.625Z,12.37
2023-04-27T01:30:23.456Z,12.93
2023-04-27T01:32:57.159Z,12.60
2023-04-27T01:35:33.108Z,12.77
2023-04-27T01:38:06.182Z,11.63
2023-04-27T01:40:39.026Z,12.33
2023-04-27T01:43:11.436Z,12.15
2023-04-27T01:45:44.018Z,11.00
2023-04-27T01:48:16.792Z,10.40
2023-04-27T01:50:50.216Z,11.47
2023-04-27T01:53:22.593Z,11.20
2023-04-27T01:55:56.198Z,11.57
2023-04-27T01:58:31.280Z,10.20
2023-04-27T02:01:04.579Z,10.77
2023-04-27T02:03:39.680Z,9.20
2023-04-27T02:06:13.562Z,10.07
2023-04-27T02:08:46.220Z,10.00
2023-04-27T02:11:19.978Z,9.07
2023-04-27T02:13:52.321Z,9.20
2023-04-27T02:16:25.541Z,9.07
2023-04-27T02:18:59.488Z,9.50
2023-04-27T02:21:32.104Z,9.05
2023-04-27T02:24:07.220Z,9.43
2023-04-27T02:26:40.079Z,9.67
2023-04-27T02:29:14.283Z,10.13
2023-04-27T02:31:48.916Z,9.50
2023-04-27T02:34:21.426Z,8.50
2023-04-27T02:36:54.404Z,8.80
2023-04-27T02:39:26.839Z,9.23
2023-04-27T02:42:00.851Z,9.07
2023-04-27T02:44:34.440Z,7.90
2023-04-27T02:47:07.690Z,8.57
2023-04-27T02:49:40.313Z,9.30
2023-04-27T02:52:12.767Z,8.40
2023-04-27T02:54:46.784Z,8.87
2023-04-27T02:57:20.035Z,9.23
2023-04-27T02:59:54.725Z,8.87
2023-04-27T03:02:28.442Z,8.87
2023-04-27T03:05:03.921Z,8.85
2023-04-27T03:07:37.187Z,8.47
2023-04-27T03:10:11.150Z,9.23
2023-04-27T03:12:43.708Z,8.70
2023-04-27T03:15:16.003Z,8.47
2023-04-27T03:17:48.760Z,9.30
2023-04-27T03:20:23.484Z,8.10
2023-04-27T03:22:56.190Z,9.63
2023-04-27T03:25:29.353Z,8.20
2023-04-27T03:28:04.536Z,8.67
2023-04-27T03:30:40.157Z,10.33
2023-04-27T03:33:12.778Z,9.03
2023-04-27T03:35:55.723Z,8.50
2023-04-27T03:38:29.594Z,9.00
2023-04-27T03:41:04.616Z,9.07
2023-04-27T03:43:37.630Z,9.20
2023-04-27T03:46:15.446Z,9.45
2023-04-27T03:48:59.105Z,8.10
2023-04-27T03:51:33.436Z,9.65
2023-04-27T03:54:06.136Z,8.48
2023-04-27T03:56:39.826Z,9.30
2023-04-27T03:59:12.787Z,9.40
2023-04-27T04:01:50.871Z,9.03
2023-04-27T04:04:23.785Z,9.37
2023-04-27T04:06:56.950Z,10.33
2023-04-27T04:09:30.997Z,9.43
2023-04-27T04:12:04.646Z,11.00
2023-04-27T04:14:37.886Z,9.88
2023-04-27T04:17:12.319Z,9.40
2023-04-27T04:19:46.375Z,9.97
2023-04-27T04:22:18.774Z,9.83
2023-04-27T04:24:52.615Z,8.67
2023-04-27T04:27:25.237Z,8.03
2023-04-27T04:29:59.103Z,7.80
2023-04-27T04:32:31.934Z,8.08
2023-04-27T04:35:06.299Z,7.97
2023-04-27T04:37:39.911Z,7.23
2023-04-27T04:40:15.137Z,8.10
2023-04-27T04:42:48.505Z,7.27
2023-04-27T04:45:22.007Z,7.05
2023-04-27T04:47:55.950Z,8.48
2023-04-27T04:50:31.015Z,9.23
2023-04-27T04:53:05.615Z,8.37
2023-04-27T04:55:38.815Z,8.07
2023-04-27T04:58:13.493Z,7.33
2023-04-27T05:00:49.810Z,6.47
2023-04-27T05:03:22.504Z,7.20
2023-04-27T05:05:55.652Z,10.90
2023-04-27T05:08:28.009Z,6.97
2023-04-27T05:11:02.977Z,6.27
2023-04-27T05:13:35.823Z,6.57
2023-04-27T05:16:09.836Z,7.00
2023-04-27T05:18:42.544Z,6.53
2023-04-27T05:21:21.027Z,6.63
2023-04-27T05:23:53.376Z,7.03
2023-04-27T05:26:26.493Z,7.20
2023-04-27T05:31:30.848Z,5.97
2023-04-27T05:34:03.230Z,6.22
2023-04-27T05:36:36.223Z,7.13
2023-04-27T05:39:08.769Z,6.67
2023-04-27T05:41:42.006Z,6.37
2023-04-27T05:44:14.229Z,6.53
2023-04-27T05:46:46.804Z,8.80
2023-04-27T05:49:19.554Z,8.87
2023-04-27T05:51:52.218Z,7.05
2023-04-27T05:54:24.522Z,7.17
2023-04-27T05:56:57.846Z,7.40
2023-04-27T05:59:30.378Z,7.92
2023-04-27T06:02:03.168Z,6.63
2023-04-27T06:04:36.947Z,7.03
2023-04-27T06:07:18.281Z,7.13
2023-04-27T06:09:51.793Z,6.30
2023-04-27T06:12:24.905Z,7.33
2023-04-27T06:14:58.101Z,8.70
2023-04-27T06:17:30.837Z,10.07
2023-04-27T06:20:07.028Z,7.83
2023-04-27T06:22:39.794Z,7.93
2023-04-27T06:25:12.638Z,7.57
2023-04-27T06:27:46.092Z,7.03
2023-04-27T06:30:18.818Z,8.45
2023-04-27T06:32:52.600Z,7.50
2023-04-27T06:35:25.859Z,7.20
2023-04-27T06:37:59.411Z,9.77
2023-04-27T06:40:31.739Z,7.92
2023-04-27T06:43:04.161Z,8.07
2023-04-27T06:45:36.683Z,8.17
2023-04-27T06:48:09.470Z,8.70
2023-04-27T06:50:42.000Z,7.27
2023-04-27T06:53:14.600Z,9.60
2023-04-27T06:55:48.568Z,7.50
2023-04-27T06:58:21.271Z,7.40
2023-04-27T07:00:56.557Z,7.50
2023-04-27T07:03:29.367Z,7.30
2023-04-27T07:06:02.377Z,7.97
2023-04-27T07:08:35.019Z,7.67
2023-04-27T07:11:07.636Z,7.93
2023-04-27T07:13:40.196Z,7.27
2023-04-27T07:16:12.933Z,7.13
2023-04-27T07:18:45.661Z,8.30
2023-04-27T07:21:18.433Z,7.53
2023-04-27T07:23:51.351Z,6.00
2023-04-27T07:26:25.199Z,6.15
2023-04-27T07:28:58.126Z,6.05
2023-04-27T07:31:32.103Z,7.80
2023-04-27T07:34:05.326Z,7.13
2023-04-27T07:36:38.308Z,7.00
2023-04-27T07:39:12.123Z,6.67
2023-04-27T07:44:15.627Z,7.10
2023-04-27T07:46:49.650Z,6.37
2023-04-27T07:49:21.932Z,7.70
2023-04-27T07:51:54.609Z,7.60
2023-04-27T07:54:27.071Z,6.53
2023-04-27T07:56:59.713Z,6.43
2023-04-27T07:59:33.145Z,6.30
2023-04-27T08:02:18.255Z,7.17
2023-04-27T08:04:52.727Z,6.53
2023-04-27T08:09:57.229Z,6.07
2023-04-27T08:12:31.644Z,6.70
2023-04-27T08:15:04.276Z,6.57
2023-04-27T08:17:37.459Z,6.60
2023-04-27T08:20:13.093Z,6.77
2023-04-27T08:22:46.987Z,6.80
2023-04-27T08:25:19.376Z,5.72
2023-04-27T08:27:52.001Z,5.00
2023-04-27T08:30:24.224Z,6.35
2023-04-27T08:32:56.881Z,6.33
2023-04-27T08:35:31.861Z,4.93
2023-04-27T08:38:04.700Z,5.13
2023-04-27T08:40:37.072Z,7.13
2023-04-27T08:43:11.085Z,5.77
2023-04-27T08:48:23.159Z,4.17
2023-04-27T08:50:57.794Z,7.10
2023-04-27T08:53:31.036Z,5.90
2023-04-27T08:56:05.969Z,4.57
2023-04-27T08:58:41.604Z,5.37
2023-04-27T09:01:14.087Z,4.47
2023-04-27T09:03:48.008Z,6.43
2023-04-27T09:06:33.006Z,5.70
2023-04-27T09:09:07.141Z,4.33
2023-04-27T09:11:41.124Z,3.97
2023-04-27T09:14:24.978Z,4.05
2023-04-27T09:17:01.944Z,4.40
2023-04-27T09:19:36.130Z,3.80
2023-04-27T09:22:13.930Z,4.00
2023-04-27T09:24:54.960Z,3.80
2023-04-27T09:27:27.806Z,4.00
2023-04-27T09:30:02.249Z,3.63
2023-04-27T09:32:34.822Z,6.57
2023-04-27T09:35:16.116Z,4.17
2023-04-27T09:37:48.958Z,4.87
2023-04-27T09:40:23.922Z,4.73
2023-04-27T09:42:58.059Z,3.77
2023-04-27T09:45:31.536Z,3.90
2023-04-27T09:48:07.558Z,4.75
2023-04-27T09:50:41.792Z,3.70
2023-04-27T09:53:17.279Z,4.57
2023-04-27T09:55:56.454Z,4.20
2023-04-27T09:58:55.659Z,2.90
2023-04-27T10:01:37.294Z,2.70
2023-04-27T10:04:22.008Z,2.53
2023-04-27T10:07:05.238Z,1.57
2023-04-27T10:09:46.885Z,2.47
2023-04-27T10:12:23.810Z,1.57
2023-04-27T10:14:57.709Z,1.90
2023-04-27T10:17:33.512Z,1.70
2023-04-27T10:20:09.342Z,1.80
2023-04-27T10:22:43.734Z,1.60
2023-04-27T10:25:24.277Z,1.93
2023-04-27T10:27:59.817Z,1.90
2023-04-27T10:30:35.513Z,2.03
2023-04-27T10:33:10.501Z,2.27
2023-04-27T10:35:44.803Z,2.00
2023-04-27T10:41:01.694Z,2.90
2023-04-27T10:43:36.031Z,2.53
2023-04-27T10:46:13.704Z,3.10
2023-04-27T10:48:47.106Z,3.77
2023-04-27T10:51:20.641Z,4.17
2023-04-27T10:53:56.764Z,4.40
2023-04-27T10:56:29.396Z,4.70
2023-04-27T10:59:06.617Z,5.73
2023-04-27T11:01:39.583Z,4.45
2023-04-27T11:04:12.453Z,4.80
2023-04-27T11:06:48.708Z,5.90
2023-04-27T11:09:29.591Z,5.30
2023-04-27T11:12:02.027Z,5.60
2023-04-27T11:14:35.472Z,4.97
2023-04-27T11:17:09.610Z,4.42
2023-04-27T11:22:20.887Z,3.13
2023-04-27T11:24:54.569Z,4.03
2023-04-27T11:27:37.166Z,3.45
2023-04-27T11:30:22.742Z,3.10
2023-04-27T11:32:55.321Z,3.17
2023-04-27T11:35:36.897Z,3.07
2023-04-27T11:38:09.621Z,2.90
2023-04-27T11:40:42.970Z,2.87
2023-04-27T11:43:17.035Z,3.00
2023-04-27T11:48:21.201Z,2.67
2023-04-27T11:50:54.800Z,3.23
2023-04-27T11:53:35.430Z,5.40
2023-04-27T11:56:11.364Z,3.57
2023-04-27T11:58:46.394Z,3.43
2023-04-27T12:01:27.655Z,3.87
2023-04-27T12:04:07.853Z,3.40
2023-04-27T12:06:41.203Z,2.95
2023-04-27T12:09:13.624Z,3.93
2023-04-27T12:11:46.073Z,3.50
2023-04-27T12:14:20.220Z,2.90
2023-04-27T12:16:53.110Z,3.30
2023-04-27T12:19:26.302Z,2.47
2023-04-27T12:22:00.401Z,3.50
2023-04-27T12:27:05.917Z,2.17
2023-04-27T12:29:38.389Z,1.83
2023-04-27T12:32:10.999Z,2.07
2023-04-27T12:34:43.731Z,2.53
2023-04-27T12:37:16.122Z,2.20
2023-04-27T12:39:48.968Z,2.10
2023-04-27T12:42:24.689Z,2.17
2023-04-27T12:44:58.090Z,1.63
2023-04-27T12:50:06.762Z,2.60
2023-04-27T12:52:39.362Z,2.83
2023-04-27T12:55:21.497Z,2.30
2023-04-27T12:58:05.129Z,2.60
2023-04-27T13:00:37.353Z,3.70
2023-04-27T13:03:10.440Z,3.70
2023-04-27T13:05:44.729Z,4.67
2023-04-27T13:08:17.310Z,3.07
2023-04-27T13:10:50.771Z,2.80
2023-04-27T13:13:23.243Z,2.70
2023-04-27T13:15:56.641Z,2.50
2023-04-27T13:18:32.911Z,2.80
2023-04-27T13:21:07.821Z,2.90
2023-04-27T13:23:40.386Z,2.70
2023-04-27T13:26:13.728Z,2.53
2023-04-27T13:28:46.485Z,2.55
2023-04-27T13:31:19.210Z,2.70
2023-04-27T13:33:51.728Z,2.93
2023-04-27T13:36:24.387Z,3.30
2023-04-27T13:38:57.989Z,2.97
2023-04-27T13:41:32.393Z,2.42
2023-04-27T13:44:05.556Z,25.60
2023-04-27T13:46:38.191Z,6.20
2023-04-27T13:49:12.057Z,3.50
2023-04-27T13:51:44.984Z,2.80
2023-04-27T13:54:17.747Z,2.60
2023-04-27T13:56:50.326Z,2.70
2023-04-27T13:59:22.973Z,2.77
2023-04-27T14:01:55.858Z,2.97
2023-04-27T14:04:28.369Z,2.67
2023-04-27T14:07:01.290Z,3.33
2023-04-27T14:09:33.573Z,3.00
2023-04-27T14:12:06.548Z,2.50
2023-04-27T14:14:39.690Z,2.10
2023-04-27T14:17:12.168Z,2.73
2023-04-27T14:19:44.394Z,2.30
2023-04-27T14:22:16.973Z,2.07
2023-04-27T14:24:50.489Z,2.33
2023-04-27T14:27:23.766Z,2.27
2023-04-27T14:29:56.221Z,2.57
2023-04-27T14:32:29.055Z,2.10
2023-04-27T14:35:02.929Z,2.43
2023-04-27T14:37:36.480Z,3.02
2023-04-27T14:40:11.269Z,2.60
2023-04-27T14:42:43.897Z,2.37
2023-04-27T14:45:18.364Z,2.50
2023-04-27T14:47:52.054Z,3.70
2023-04-27T14:50:24.457Z,2.83
2023-04-27T14:53:01.926Z,2.97
2023-04-27T14:55:34.346Z,3.93
2023-04-27T14:58:07.759Z,3.97
2023-04-27T15:00:40.134Z,2.95
2023-04-27T15:03:12.884Z,3.83
2023-04-27T15:05:45.299Z,3.77
2023-04-27T15:08:18.008Z,3.93
2023-04-27T15:10:50.622Z,3.20
2023-04-27T15:13:23.176Z,3.10
2023-04-27T15:15:58.351Z,2.63
2023-04-27T15:18:33.033Z,3.07
2023-04-27T15:21:06.027Z,3.10
2023-04-27T15:23:38.460Z,2.80
2023-04-27T15:26:11.160Z,4.40
2023-04-27T15:28:45.517Z,3.83
2023-04-27T15:31:18.286Z,3.90
2023-04-27T15:33:50.693Z,5.00
2023-04-27T15:36:26.833Z,4.37
2023-04-27T15:38:59.525Z,4.10
2023-04-27T15:41:32.399Z,5.57
2023-04-27T15:44:08.548Z,4.93
2023-04-27T15:46:41.651Z,5.50
2023-04-27T15:49:15.375Z,5.72
2023-04-27T15:51:48.202Z,6.37
2023-04-27T15:54:22.444Z,4.90
2023-04-27T15:56:55.138Z,4.87
2023-04-27T15:59:28.038Z,5.40
2023-04-27T16:02:01.301Z,4.60
2023-04-27T16:04:33.946Z,3.70
2023-04-27T16:07:07.396Z,4.23
2023-04-27T16:09:42.567Z,4.12
2023-04-27T16:12:14.985Z,3.63
2023-04-27T16:14:52.189Z,4.43
2023-04-27T16:17:24.891Z,5.13
2023-04-27T16:19:58.805Z,3.90
2023-04-27T16:22:32.077Z,4.83
2023-04-27T16:25:06.874Z,4.97
2023-04-27T16:27:39.760Z,6.50
2023-04-27T16:30:14.812Z,6.87
2023-04-27T16:32:48.670Z,6.63
2023-04-27T16:35:25.019Z,7.35
2023-04-27T16:37:57.975Z,7.33
2023-04-27T16:40:31.071Z,5.22
2023-04-27T16:43:04.506Z,5.63
2023-04-27T16:45:38.697Z,5.03
2023-04-27T16:48:13.287Z,4.23
2023-04-27T16:50:46.517Z,7.97
2023-04-27T16:53:21.357Z,5.37
2023-04-27T16:55:53.812Z,4.90
2023-04-27T16:58:26.585Z,4.87
2023-04-27T17:00:59.370Z,5.23
2023-04-27T17:03:36.174Z,5.73
2023-04-27T17:06:10.086Z,6.03
2023-04-27T17:08:42.649Z,6.17
2023-04-27T17:11:15.441Z,5.27
2023-04-27T17:13:49.755Z,5.67
2023-04-27T17:16:23.711Z,6.80
2023-04-27T17:19:00.413Z,5.83
2023-04-27T17:21:32.950Z,4.80
2023-04-27T17:24:06.674Z,5.37
2023-04-27T17:26:44.289Z,6.63
2023-04-27T17:29:17.189Z,5.80
2023-04-27T17:31:50.620Z,6.63
2023-04-27T17:34:24.575Z,4.97
2023-04-27T17:36:56.885Z,7.40
2023-04-27T17:39:29.646Z,6.13
2023-04-27T17:42:02.974Z,6.70
2023-04-27T17:44:39.547Z,5.70
2023-04-27T17:47:12.085Z,4.80
2023-04-27T17:49:44.756Z,4.90
2023-04-27T17:52:17.341Z,4.47
2023-04-27T17:54:51.362Z,4.47
2023-04-27T17:57:25.157Z,3.97
2023-04-27T17:59:57.966Z,4.03
2023-04-27T18:02:30.537Z,4.77
2023-04-27T18:05:05.770Z,4.53
2023-04-27T18:07:39.603Z,5.80
2023-04-27T18:10:13.641Z,5.40
2023-04-27T18:12:46.194Z,5.23
2023-04-27T18:15:18.480Z,5.47
2023-04-27T18:17:50.864Z,5.83
2023-04-27T18:20:23.526Z,5.73
2023-04-27T18:22:56.263Z,5.70
2023-04-27T18:25:28.674Z,5.27
2023-04-27T18:28:03.389Z,5.80
2023-04-27T18:30:40.385Z,5.47
2023-04-27T18:33:13.701Z,5.30
2023-04-27T18:35:46.345Z,5.90
2023-04-27T18:38:22.616Z,5.40
2023-04-27T18:40:55.185Z,4.60
2023-04-27T18:43:28.514Z,5.90
2023-04-27T18:46:03.070Z,5.63
2023-04-27T18:48:35.922Z,5.30
2023-04-27T18:51:13.156Z,5.67
2023-04-27T18:53:46.459Z,5.87
2023-04-27T18:56:18.946Z,7.27
2023-04-27T18:58:52.096Z,6.97
2023-04-27T19:01:26.978Z,6.50
2023-04-27T19:04:00.705Z,6.60
2023-04-27T19:09:07.038Z,7.60
2023-04-27T19:11:40.144Z,7.30
2023-04-27T19:14:13.167Z,8.13
2023-04-27T19:16:46.418Z,8.13
2023-04-27T19:19:19.458Z,7.63
2023-04-27T19:21:52.272Z,7.97
2023-04-27T19:24:24.745Z,7.80
2023-04-27T19:26:57.106Z,7.50
2023-04-27T19:29:29.685Z,7.60
2023-04-27T19:32:02.438Z,8.00
2023-04-27T19:34:36.359Z,8.10
2023-04-27T19:37:08.754Z,7.90
2023-04-27T19:39:41.550Z,8.73
2023-04-27T19:42:15.449Z,8.33
2023-04-27T19:44:50.306Z,8.63
2023-04-27T19:47:24.206Z,8.70
2023-04-27T19:52:34.813Z,7.20
2023-04-27T19:55:08.973Z,8.50
2023-04-27T19:57:46.082Z,7.60
2023-04-27T20:00:19.487Z,8.23
2023-04-27T20:02:53.636Z,8.70
2023-04-27T20:05:27.767Z,8.87
2023-04-27T20:08:00.323Z,9.78
2023-04-27T20:10:35.331Z,9.33
2023-04-27T20:13:07.883Z,9.13
2023-04-27T20:15:40.944Z,10.27
2023-04-27T20:18:13.753Z,10.80
2023-04-27T20:20:46.685Z,10.73
2023-04-27T20:23:19.760Z,11.60
2023-04-27T20:25:53.945Z,12.43
2023-04-27T20:31:00.394Z,12.53
2023-04-27T20:33:36.385Z,13.53
2023-04-27T20:36:17.270Z,14.57
2023-04-27T20:38:51.029Z,15.83
2023-04-27T20:41:24.181Z,15.13
2023-04-27T20:43:56.962Z,15.37
2023-04-27T20:46:29.990Z,15.40
2023-04-27T20:49:02.814Z,13.60
2023-04-27T20:51:36.754Z,13.27
2023-04-27T20:54:10.749Z,15.10
2023-04-27T20:56:47.327Z,14.33
2023-04-27T20:59:20.084Z,15.03
2023-04-27T21:01:52.660Z,14.65
2023-04-27T21:04:26.315Z,14.20
2023-04-27T21:06:59.182Z,14.85
2023-04-27T21:09:31.790Z,13.87
2023-04-27T21:12:04.454Z,15.40
2023-04-27T21:14:37.793Z,15.20
2023-04-27T21:17:10.396Z,16.10
2023-04-27T21:19:44.058Z,15.27
2023-04-27T21:22:16.545Z,15.57
2023-04-27T21:24:49.041Z,16.60
2023-04-27T21:27:23.431Z,17.10
2023-04-27T21:29:56.240Z,17.03
2023-04-27T21:32:28.745Z,16.83
2023-04-27T21:35:01.330Z,16.77
2023-04-27T21:37:34.443Z,17.03
2023-04-27T21:40:09.620Z,16.17
2023-04-27T21:42:43.433Z,15.27
2023-04-27T21:45:16.943Z,16.07
2023-04-27T21:47:49.685Z,15.95
2023-04-27T21:50:22.849Z,15.23
2023-04-27T21:52:55.212Z,14.83
2023-04-27T21:55:27.550Z,15.60
2023-04-27T21:57:59.767Z,14.83
2023-04-27T22:00:34.711Z,16.77
2023-04-27T22:03:09.390Z,15.87
2023-04-27T22:05:41.960Z,16.37
2023-04-27T22:08:14.642Z,16.17
2023-04-27T22:10:50.028Z,14.47
2023-04-27T22:13:23.523Z,15.90
2023-04-27T22:15:56.199Z,15.53
2023-04-27T22:18:29.302Z,14.33
2023-04-27T22:21:02.040Z,14.87
2023-04-27T22:23:34.972Z,15.67
2023-04-27T22:26:09.109Z,13.70
2023-04-27T22:28:42.675Z,13.90
2023-04-27T22:31:15.606Z,14.37
2023-04-27T22:33:48.704Z,13.97
2023-04-27T22:36:20.995Z,14.33
2023-04-27T22:38:54.384Z,14.07
2023-04-27T22:41:26.656Z,13.70
2023-04-27T22:43:59.345Z,13.33
2023-04-27T22:46:31.667Z,13.93
2023-04-27T22:49:06.549Z,13.60
2023-04-27T22:51:38.882Z,13.53
2023-04-27T22:54:14.168Z,14.53
2023-04-27T22:56:47.260Z,13.53
2023-04-27T22:59:23.035Z,13.57
2023-04-27T23:01:55.279Z,13.63
2023-04-27T23:04:29.282Z,13.40
2023-04-27T23:07:03.729Z,13.90
2023-04-27T23:12:09.230Z,13.37
2023-04-27T23:14:42.748Z,12.00
2023-04-27T23:17:15.702Z,13.10
2023-04-27T23:19:49.728Z,13.30
2023-04-27T23:22:22.166Z,13.15
2023-04-27T23:24:54.819Z,13.60
2023-04-27T23:27:28.230Z,13.90
2023-04-27T23:30:00.904Z,14.50
2023-04-27T23:32:33.526Z,13.47
2023-04-27T23:35:09.751Z,14.57
2023-04-27T23:37:44.169Z,13.23
2023-04-27T23:40:17.361Z,13.80
2023-04-27T23:42:51.546Z,14.17
2023-04-27T23:45:24.544Z,14.97
2023-04-27T23:47:59.449Z,13.70
2023-04-27T23:50:33.990Z,14.63
2023-04-27T23:53:08.765Z,13.62
2023-04-27T23:55:42.000Z,13.25
2023-04-27T23:58:15.653Z,14.30
